Lobo

Go HERE for most recent data if this page is not up to date.

Jump to table bottom
Date/Time Temp deg F RH % 24 Hr Snow (in) Snow Depth (in) H2O (in)
02/08 18:00 10.2 80 0.3 60.1 0.01
02/08 17:00 10.4 81 0.0 60.1 0.00
02/08 16:00 11.8 62 3.1 60.0 0.00
02/08 15:00 11.6 60 3.1 60.0 0.01
02/08 14:00 12.5 65 2.8 59.9 0.00
02/08 13:00 12.9 65 3.0 60.1 0.00
02/08 12:00 12.0 64 3.1 60.3 0.00
02/08 11:00 11.7 63 3.2 60.6 0.00
02/08 10:00 11.0 64 3.3 60.5 0.00
02/08 09:00 10.3 77 3.3 60.6 0.06
02/08 08:00 13.5 85 3.1 60.3 0.10
02/08 07:00 15.7 87 1.2 58.1 0.06
02/08 06:00 17.8 81 0.0 56.2 0.00
02/08 05:00 18.1 71 0.0 56.4 0.00
02/08 04:00 18.7 70 0.0 56.5 0.00
02/08 03:00 19.3 67 0.0 56.5 0.00
02/08 02:00 19.8 71 0.0 56.5 0.00
02/08 01:00 20.6 74 0.0 56.5 0.00
02/08 00:00 21.3 71 0.0 56.4 0.00
02/07 23:00 22.9 69 0.0 56.6 0.00
02/07 22:00 20.2 67 0.1 56.6 0.00
02/07 21:00 21.5 70 0.0 56.5 0.00
02/07 20:00 22.8 62 0.0 56.5 0.00
02/07 19:00 22.8 61 0.0 56.5 0.00
02/07 18:00 23.0 63 0.0 56.6 0.00
02/07 17:00 24.8 59 0.0 56.9 0.00
02/07 16:00 27.1 53 -0.1 56.7 0.00
02/07 15:00 28.4 47 -0.3 56.6 0.00
02/07 14:00 29.0 45 -0.2 56.6 0.00
02/07 13:00 28.7 45 -0.0 56.8 0.00
02/07 12:00 26.1 47 0.0 56.9 0.00
02/07 11:00 24.1 50 0.2 56.8 0.00
02/07 10:00 21.2 61 0.2 56.8 0.00
02/07 09:00 18.6 73 0.1 56.8 0.00
02/07 08:00 18.1 68 0.2 57.1 0.00
02/07 07:00 17.7 81 0.0 57.2 0.00
02/07 06:00 18.1 81 0.0 57.3 0.00
02/07 05:00 16.3 84 0.1 57.7 0.00
02/07 04:00 16.5 90 0.0 57.6 0.00
02/07 03:00 16.9 80 0.1 57.7 0.00
02/07 02:00 16.9 86 0.0 57.8 0.00
02/07 01:00 16.4 84 0.0 57.9 0.00
02/07 00:00 15.6 91 0.0 57.9 0.00
.